sensor_id;sensor_type;location;lat;lon;timestamp;P1;durP1;ratioP1;P2;durP2;ratioP2
11827;SDS011;5971;49.646;8.568;2023-06-14T00:02:33;8.35;;;4.30;;
11827;SDS011;5971;49.646;8.568;2023-06-14T00:05:38;6.93;;;4.47;;
11827;SDS011;5971;49.646;8.568;2023-06-14T00:08:42;7.00;;;4.28;;
11827;SDS011;5971;49.646;8.568;2023-06-14T00:11:43;8.20;;;3.90;;
11827;SDS011;5971;49.646;8.568;2023-06-14T00:14:45;5.65;;;3.85;;
11827;SDS011;5971;49.646;8.568;2023-06-14T00:17:46;6.00;;;4.18;;
11827;SDS011;5971;49.646;8.568;2023-06-14T00:20:48;5.43;;;3.95;;
11827;SDS011;5971;49.646;8.568;2023-06-14T00:23:50;5.47;;;3.92;;
11827;SDS011;5971;49.646;8.568;2023-06-14T00:26:52;5.65;;;3.92;;
11827;SDS011;5971;49.646;8.568;2023-06-14T00:29:53;6.45;;;4.05;;
11827;SDS011;5971;49.646;8.568;2023-06-14T00:32:54;5.40;;;3.90;;
11827;SDS011;5971;49.646;8.568;2023-06-14T00:35:56;5.53;;;3.55;;
11827;SDS011;5971;49.646;8.568;2023-06-14T00:38:57;7.90;;;3.85;;
11827;SDS011;5971;49.646;8.568;2023-06-14T00:41:58;6.40;;;4.30;;
11827;SDS011;5971;49.646;8.568;2023-06-14T00:45:00;6.80;;;4.07;;
11827;SDS011;5971;49.646;8.568;2023-06-14T00:48:02;6.63;;;4.00;;
11827;SDS011;5971;49.646;8.568;2023-06-14T00:51:03;5.93;;;4.13;;
11827;SDS011;5971;49.646;8.568;2023-06-14T00:54:05;6.05;;;3.97;;
11827;SDS011;5971;49.646;8.568;2023-06-14T00:57:06;6.25;;;3.83;;
11827;SDS011;5971;49.646;8.568;2023-06-14T01:00:08;5.53;;;4.15;;
11827;SDS011;5971;49.646;8.568;2023-06-14T01:03:11;7.07;;;3.65;;
11827;SDS011;5971;49.646;8.568;2023-06-14T01:06:23;5.63;;;4.07;;
11827;SDS011;5971;49.646;8.568;2023-06-14T01:09:37;7.35;;;3.75;;
11827;SDS011;5971;49.646;8.568;2023-06-14T01:12:58;6.25;;;4.28;;
11827;SDS011;5971;49.646;8.568;2023-06-14T01:16:02;8.07;;;4.20;;
11827;SDS011;5971;49.646;8.568;2023-06-14T01:19:05;6.15;;;4.28;;
11827;SDS011;5971;49.646;8.568;2023-06-14T01:22:06;5.55;;;3.90;;
11827;SDS011;5971;49.646;8.568;2023-06-14T01:25:08;6.50;;;4.07;;
11827;SDS011;5971;49.646;8.568;2023-06-14T01:28:10;10.07;;;3.80;;
11827;SDS011;5971;49.646;8.568;2023-06-14T01:31:12;7.65;;;4.13;;
11827;SDS011;5971;49.646;8.568;2023-06-14T01:34:14;6.28;;;3.88;;
11827;SDS011;5971;49.646;8.568;2023-06-14T01:37:15;6.43;;;4.25;;
11827;SDS011;5971;49.646;8.568;2023-06-14T01:40:17;5.15;;;3.67;;
11827;SDS011;5971;49.646;8.568;2023-06-14T01:43:18;6.57;;;4.03;;
11827;SDS011;5971;49.646;8.568;2023-06-14T01:46:21;6.32;;;4.40;;
11827;SDS011;5971;49.646;8.568;2023-06-14T01:49:22;5.57;;;3.97;;
11827;SDS011;5971;49.646;8.568;2023-06-14T01:52:24;5.75;;;3.88;;
11827;SDS011;5971;49.646;8.568;2023-06-14T01:55:25;6.72;;;3.97;;
11827;SDS011;5971;49.646;8.568;2023-06-14T01:58:27;6.57;;;4.32;;
11827;SDS011;5971;49.646;8.568;2023-06-14T02:01:28;6.45;;;4.20;;
11827;SDS011;5971;49.646;8.568;2023-06-14T02:04:29;6.25;;;4.32;;
11827;SDS011;5971;49.646;8.568;2023-06-14T02:07:31;6.15;;;4.15;;
11827;SDS011;5971;49.646;8.568;2023-06-14T02:10:32;6.65;;;3.92;;
11827;SDS011;5971;49.646;8.568;2023-06-14T02:13:35;6.15;;;4.15;;
11827;SDS011;5971;49.646;8.568;2023-06-14T02:16:37;7.00;;;4.55;;
11827;SDS011;5971;49.646;8.568;2023-06-14T02:19:40;7.30;;;4.50;;
11827;SDS011;5971;49.646;8.568;2023-06-14T02:22:41;6.50;;;4.05;;
11827;SDS011;5971;49.646;8.568;2023-06-14T02:25:43;7.85;;;4.95;;
11827;SDS011;5971;49.646;8.568;2023-06-14T02:28:46;7.45;;;4.57;;
11827;SDS011;5971;49.646;8.568;2023-06-14T02:31:47;7.55;;;4.65;;
11827;SDS011;5971;49.646;8.568;2023-06-14T02:34:49;7.85;;;4.65;;
11827;SDS011;5971;49.646;8.568;2023-06-14T02:37:51;8.98;;;5.28;;
11827;SDS011;5971;49.646;8.568;2023-06-14T02:40:52;7.38;;;4.72;;
11827;SDS011;5971;49.646;8.568;2023-06-14T02:43:53;7.82;;;4.30;;
11827;SDS011;5971;49.646;8.568;2023-06-14T02:46:55;7.03;;;4.85;;
11827;SDS011;5971;49.646;8.568;2023-06-14T02:49:56;7.53;;;4.93;;
11827;SDS011;5971;49.646;8.568;2023-06-14T02:52:58;8.10;;;4.53;;
11827;SDS011;5971;49.646;8.568;2023-06-14T02:55:59;8.60;;;4.95;;
11827;SDS011;5971;49.646;8.568;2023-06-14T02:59:01;8.38;;;4.85;;
11827;SDS011;5971;49.646;8.568;2023-06-14T03:02:02;7.20;;;4.78;;
11827;SDS011;5971;49.646;8.568;2023-06-14T03:05:04;7.60;;;4.68;;
11827;SDS011;5971;49.646;8.568;2023-06-14T03:08:07;6.95;;;4.47;;
11827;SDS011;5971;49.646;8.568;2023-06-14T03:11:09;7.78;;;4.63;;
11827;SDS011;5971;49.646;8.568;2023-06-14T03:14:11;7.88;;;5.00;;
11827;SDS011;5971;49.646;8.568;2023-06-14T03:17:14;6.82;;;4.47;;
11827;SDS011;5971;49.646;8.568;2023-06-14T03:20:16;7.18;;;5.18;;
11827;SDS011;5971;49.646;8.568;2023-06-14T03:23:19;6.35;;;4.38;;
11827;SDS011;5971;49.646;8.568;2023-06-14T03:26:20;7.03;;;4.68;;
11827;SDS011;5971;49.646;8.568;2023-06-14T03:29:22;10.30;;;4.40;;
11827;SDS011;5971;49.646;8.568;2023-06-14T03:32:23;7.43;;;5.10;;
11827;SDS011;5971;49.646;8.568;2023-06-14T03:35:25;8.18;;;4.95;;
11827;SDS011;5971;49.646;8.568;2023-06-14T03:38:26;7.10;;;4.85;;
11827;SDS011;5971;49.646;8.568;2023-06-14T03:41:27;7.43;;;4.53;;
11827;SDS011;5971;49.646;8.568;2023-06-14T03:44:29;7.70;;;4.40;;
11827;SDS011;5971;49.646;8.568;2023-06-14T03:47:30;7.43;;;4.50;;
11827;SDS011;5971;49.646;8.568;2023-06-14T03:50:32;7.72;;;4.63;;
11827;SDS011;5971;49.646;8.568;2023-06-14T03:53:33;6.97;;;4.88;;
11827;SDS011;5971;49.646;8.568;2023-06-14T03:59:47;5.55;;;4.00;;
11827;SDS011;5971;49.646;8.568;2023-06-14T04:02:48;8.38;;;4.28;;
11827;SDS011;5971;49.646;8.568;2023-06-14T04:05:50;6.38;;;4.45;;
11827;SDS011;5971;49.646;8.568;2023-06-14T04:08:51;6.10;;;4.50;;
11827;SDS011;5971;49.646;8.568;2023-06-14T04:11:53;6.05;;;4.28;;
11827;SDS011;5971;49.646;8.568;2023-06-14T04:14:54;7.07;;;4.28;;
11827;SDS011;5971;49.646;8.568;2023-06-14T04:18:05;8.80;;;4.60;;
11827;SDS011;5971;49.646;8.568;2023-06-14T04:21:06;8.70;;;4.68;;
11827;SDS011;5971;49.646;8.568;2023-06-14T04:24:09;8.57;;;4.55;;
11827;SDS011;5971;49.646;8.568;2023-06-14T04:27:16;7.50;;;4.30;;
11827;SDS011;5971;49.646;8.568;2023-06-14T04:30:22;7.15;;;4.25;;
11827;SDS011;5971;49.646;8.568;2023-06-14T04:33:27;8.98;;;4.90;;
11827;SDS011;5971;49.646;8.568;2023-06-14T04:36:29;6.93;;;4.13;;
11827;SDS011;5971;49.646;8.568;2023-06-14T04:39:32;7.40;;;4.30;;
11827;SDS011;5971;49.646;8.568;2023-06-14T04:42:33;7.40;;;4.40;;
11827;SDS011;5971;49.646;8.568;2023-06-14T04:45:38;8.45;;;4.25;;
11827;SDS011;5971;49.646;8.568;2023-06-14T04:48:40;6.95;;;4.50;;
11827;SDS011;5971;49.646;8.568;2023-06-14T04:51:44;6.55;;;4.32;;
11827;SDS011;5971;49.646;8.568;2023-06-14T04:54:46;5.20;;;3.90;;
11827;SDS011;5971;49.646;8.568;2023-06-14T04:57:48;6.47;;;4.55;;
11827;SDS011;5971;49.646;8.568;2023-06-14T05:00:50;6.68;;;3.80;;
11827;SDS011;5971;49.646;8.568;2023-06-14T05:03:51;6.78;;;4.32;;
11827;SDS011;5971;49.646;8.568;2023-06-14T05:06:53;7.10;;;4.07;;
11827;SDS011;5971;49.646;8.568;2023-06-14T05:09:55;7.53;;;4.45;;
11827;SDS011;5971;49.646;8.568;2023-06-14T05:12:57;7.68;;;4.40;;
11827;SDS011;5971;49.646;8.568;2023-06-14T05:15:58;5.43;;;3.90;;
11827;SDS011;5971;49.646;8.568;2023-06-14T05:19:00;8.73;;;4.68;;
11827;SDS011;5971;49.646;8.568;2023-06-14T05:22:02;6.07;;;4.25;;
11827;SDS011;5971;49.646;8.568;2023-06-14T05:25:04;5.75;;;3.80;;
11827;SDS011;5971;49.646;8.568;2023-06-14T05:28:05;8.38;;;4.47;;
11827;SDS011;5971;49.646;8.568;2023-06-14T05:31:07;6.60;;;3.97;;
11827;SDS011;5971;49.646;8.568;2023-06-14T05:34:08;6.40;;;4.30;;
11827;SDS011;5971;49.646;8.568;2023-06-14T05:37:09;6.22;;;4.32;;
11827;SDS011;5971;49.646;8.568;2023-06-14T05:40:11;6.65;;;4.20;;
11827;SDS011;5971;49.646;8.568;2023-06-14T05:43:12;6.70;;;4.07;;
11827;SDS011;5971;49.646;8.568;2023-06-14T05:46:14;6.53;;;4.35;;
11827;SDS011;5971;49.646;8.568;2023-06-14T05:49:16;7.15;;;4.10;;
11827;SDS011;5971;49.646;8.568;2023-06-14T05:52:17;6.25;;;4.43;;
11827;SDS011;5971;49.646;8.568;2023-06-14T05:55:19;7.00;;;4.15;;
11827;SDS011;5971;49.646;8.568;2023-06-14T05:58:21;6.43;;;4.43;;
11827;SDS011;5971;49.646;8.568;2023-06-14T06:01:23;6.95;;;4.40;;
11827;SDS011;5971;49.646;8.568;2023-06-14T06:04:24;6.20;;;4.63;;
11827;SDS011;5971;49.646;8.568;2023-06-14T06:07:26;6.75;;;3.88;;
11827;SDS011;5971;49.646;8.568;2023-06-14T06:10:27;6.43;;;4.13;;
11827;SDS011;5971;49.646;8.568;2023-06-14T06:13:28;7.25;;;4.00;;
11827;SDS011;5971;49.646;8.568;2023-06-14T06:16:30;6.13;;;4.22;;
11827;SDS011;5971;49.646;8.568;2023-06-14T06:19:31;5.75;;;3.95;;
11827;SDS011;5971;49.646;8.568;2023-06-14T06:22:32;6.45;;;4.20;;
11827;SDS011;5971;49.646;8.568;2023-06-14T06:25:34;7.18;;;3.90;;
11827;SDS011;5971;49.646;8.568;2023-06-14T06:28:35;10.38;;;4.18;;
11827;SDS011;5971;49.646;8.568;2023-06-14T06:31:36;7.18;;;4.35;;
11827;SDS011;5971;49.646;8.568;2023-06-14T06:34:38;6.88;;;4.22;;
11827;SDS011;5971;49.646;8.568;2023-06-14T06:37:40;6.32;;;3.92;;
11827;SDS011;5971;49.646;8.568;2023-06-14T06:40:42;5.15;;;3.83;;
11827;SDS011;5971;49.646;8.568;2023-06-14T06:43:43;6.13;;;4.00;;
11827;SDS011;5971;49.646;8.568;2023-06-14T06:46:44;4.97;;;3.60;;
11827;SDS011;5971;49.646;8.568;2023-06-14T06:49:46;5.40;;;3.53;;
11827;SDS011;5971;49.646;8.568;2023-06-14T06:52:47;5.60;;;4.22;;
11827;SDS011;5971;49.646;8.568;2023-06-14T06:55:49;5.30;;;3.72;;
11827;SDS011;5971;49.646;8.568;2023-06-14T06:58:50;5.68;;;3.90;;
11827;SDS011;5971;49.646;8.568;2023-06-14T07:01:52;4.63;;;3.47;;
11827;SDS011;5971;49.646;8.568;2023-06-14T07:04:55;4.68;;;3.55;;
11827;SDS011;5971;49.646;8.568;2023-06-14T07:07:56;5.97;;;3.30;;
11827;SDS011;5971;49.646;8.568;2023-06-14T07:10:58;5.55;;;3.55;;
11827;SDS011;5971;49.646;8.568;2023-06-14T07:13:59;5.15;;;3.58;;
11827;SDS011;5971;49.646;8.568;2023-06-14T07:17:01;6.05;;;3.53;;
11827;SDS011;5971;49.646;8.568;2023-06-14T07:20:02;6.80;;;3.30;;
11827;SDS011;5971;49.646;8.568;2023-06-14T07:23:14;4.50;;;3.40;;
11827;SDS011;5971;49.646;8.568;2023-06-14T07:26:15;7.53;;;3.65;;
11827;SDS011;5971;49.646;8.568;2023-06-14T07:29:17;5.68;;;3.78;;
11827;SDS011;5971;49.646;8.568;2023-06-14T07:32:18;5.40;;;3.90;;
11827;SDS011;5971;49.646;8.568;2023-06-14T07:35:21;5.05;;;3.65;;
11827;SDS011;5971;49.646;8.568;2023-06-14T07:38:22;4.55;;;3.17;;
11827;SDS011;5971;49.646;8.568;2023-06-14T07:41:24;4.28;;;3.42;;
11827;SDS011;5971;49.646;8.568;2023-06-14T07:44:27;5.13;;;3.58;;
11827;SDS011;5971;49.646;8.568;2023-06-14T07:47:28;5.57;;;3.53;;
11827;SDS011;5971;49.646;8.568;2023-06-14T07:50:30;6.45;;;3.65;;
11827;SDS011;5971;49.646;8.568;2023-06-14T07:53:31;4.85;;;3.50;;
11827;SDS011;5971;49.646;8.568;2023-06-14T07:56:32;5.22;;;3.55;;
11827;SDS011;5971;49.646;8.568;2023-06-14T07:59:34;4.28;;;3.60;;
11827;SDS011;5971;49.646;8.568;2023-06-14T08:02:36;4.95;;;3.33;;
11827;SDS011;5971;49.646;8.568;2023-06-14T08:05:38;9.15;;;4.20;;
11827;SDS011;5971;49.646;8.568;2023-06-14T08:08:39;5.68;;;3.80;;
11827;SDS011;5971;49.646;8.568;2023-06-14T08:11:40;5.28;;;3.92;;
11827;SDS011;5971;49.646;8.568;2023-06-14T08:14:42;4.68;;;3.63;;
11827;SDS011;5971;49.646;8.568;2023-06-14T08:17:44;5.22;;;3.70;;
11827;SDS011;5971;49.646;8.568;2023-06-14T08:20:45;4.72;;;3.72;;
11827;SDS011;5971;49.646;8.568;2023-06-14T08:23:47;5.45;;;4.03;;
11827;SDS011;5971;49.646;8.568;2023-06-14T08:26:48;5.00;;;3.47;;
11827;SDS011;5971;49.646;8.568;2023-06-14T08:29:49;7.45;;;3.65;;
11827;SDS011;5971;49.646;8.568;2023-06-14T08:32:51;5.90;;;3.67;;
11827;SDS011;5971;49.646;8.568;2023-06-14T08:36:10;4.75;;;3.30;;
11827;SDS011;5971;49.646;8.568;2023-06-14T08:39:13;4.28;;;3.45;;
11827;SDS011;5971;49.646;8.568;2023-06-14T08:42:15;5.75;;;3.88;;
11827;SDS011;5971;49.646;8.568;2023-06-14T08:45:31;4.15;;;3.08;;
11827;SDS011;5971;49.646;8.568;2023-06-14T08:48:33;5.57;;;3.42;;
11827;SDS011;5971;49.646;8.568;2023-06-14T08:51:35;4.30;;;3.45;;
11827;SDS011;5971;49.646;8.568;2023-06-14T08:54:37;5.03;;;3.13;;
11827;SDS011;5971;49.646;8.568;2023-06-14T08:57:44;4.90;;;3.25;;
11827;SDS011;5971;49.646;8.568;2023-06-14T09:00:46;3.80;;;2.88;;
11827;SDS011;5971;49.646;8.568;2023-06-14T09:03:49;7.03;;;3.10;;
11827;SDS011;5971;49.646;8.568;2023-06-14T09:06:50;4.35;;;3.03;;
11827;SDS011;5971;49.646;8.568;2023-06-14T09:10:12;4.13;;;3.05;;
11827;SDS011;5971;49.646;8.568;2023-06-14T09:13:14;4.35;;;2.88;;
11827;SDS011;5971;49.646;8.568;2023-06-14T09:16:15;6.60;;;2.90;;
11827;SDS011;5971;49.646;8.568;2023-06-14T09:19:23;3.80;;;2.90;;
11827;SDS011;5971;49.646;8.568;2023-06-14T09:22:25;5.20;;;3.08;;
11827;SDS011;5971;49.646;8.568;2023-06-14T09:25:26;3.85;;;2.92;;
11827;SDS011;5971;49.646;8.568;2023-06-14T09:28:31;4.30;;;2.95;;
11827;SDS011;5971;49.646;8.568;2023-06-14T09:31:34;4.65;;;2.90;;
11827;SDS011;5971;49.646;8.568;2023-06-14T09:34:36;4.60;;;3.03;;
11827;SDS011;5971;49.646;8.568;2023-06-14T09:37:38;4.55;;;3.13;;
11827;SDS011;5971;49.646;8.568;2023-06-14T09:40:40;5.28;;;3.17;;
11827;SDS011;5971;49.646;8.568;2023-06-14T09:43:41;4.75;;;2.97;;
11827;SDS011;5971;49.646;8.568;2023-06-14T09:46:42;4.40;;;2.72;;
11827;SDS011;5971;49.646;8.568;2023-06-14T09:49:45;3.83;;;2.60;;
11827;SDS011;5971;49.646;8.568;2023-06-14T09:52:46;4.22;;;2.55;;
11827;SDS011;5971;49.646;8.568;2023-06-14T09:55:50;3.90;;;2.85;;
11827;SDS011;5971;49.646;8.568;2023-06-14T09:58:54;4.10;;;2.63;;
11827;SDS011;5971;49.646;8.568;2023-06-14T10:02:14;4.15;;;2.75;;
11827;SDS011;5971;49.646;8.568;2023-06-14T10:05:17;3.85;;;2.60;;
11827;SDS011;5971;49.646;8.568;2023-06-14T10:08:23;3.35;;;2.70;;
11827;SDS011;5971;49.646;8.568;2023-06-14T10:11:27;4.45;;;2.83;;
11827;SDS011;5971;49.646;8.568;2023-06-14T10:14:28;4.68;;;2.95;;
11827;SDS011;5971;49.646;8.568;2023-06-14T10:20:43;3.67;;;2.75;;
11827;SDS011;5971;49.646;8.568;2023-06-14T10:23:46;3.65;;;2.67;;
11827;SDS011;5971;49.646;8.568;2023-06-14T10:26:54;3.72;;;2.70;;
11827;SDS011;5971;49.646;8.568;2023-06-14T10:30:03;4.00;;;2.83;;
11827;SDS011;5971;49.646;8.568;2023-06-14T10:33:08;3.97;;;2.83;;
11827;SDS011;5971;49.646;8.568;2023-06-14T10:36:29;3.92;;;2.88;;
11827;SDS011;5971;49.646;8.568;2023-06-14T10:39:38;3.42;;;3.05;;
11827;SDS011;5971;49.646;8.568;2023-06-14T10:42:40;3.70;;;2.95;;
11827;SDS011;5971;49.646;8.568;2023-06-14T10:49:12;4.40;;;3.00;;
11827;SDS011;5971;49.646;8.568;2023-06-14T10:52:16;4.53;;;2.72;;
11827;SDS011;5971;49.646;8.568;2023-06-14T10:55:21;5.00;;;3.00;;
11827;SDS011;5971;49.646;8.568;2023-06-14T10:58:25;3.80;;;2.63;;
11827;SDS011;5971;49.646;8.568;2023-06-14T11:01:35;4.93;;;3.05;;
11827;SDS011;5971;49.646;8.568;2023-06-14T11:04:46;3.78;;;3.00;;
11827;SDS011;5971;49.646;8.568;2023-06-14T11:07:52;4.90;;;3.00;;
11827;SDS011;5971;49.646;8.568;2023-06-14T11:10:58;4.00;;;2.97;;
11827;SDS011;5971;49.646;8.568;2023-06-14T11:14:00;3.90;;;2.80;;
11827;SDS011;5971;49.646;8.568;2023-06-14T11:17:03;4.05;;;2.90;;
11827;SDS011;5971;49.646;8.568;2023-06-14T11:20:11;4.55;;;3.47;;
11827;SDS011;5971;49.646;8.568;2023-06-14T11:23:17;4.85;;;3.35;;
11827;SDS011;5971;49.646;8.568;2023-06-14T11:26:26;4.07;;;3.20;;
11827;SDS011;5971;49.646;8.568;2023-06-14T11:29:28;7.78;;;4.03;;
11827;SDS011;5971;49.646;8.568;2023-06-14T11:32:31;4.72;;;3.10;;
11827;SDS011;5971;49.646;8.568;2023-06-14T11:35:33;3.50;;;2.83;;
11827;SDS011;5971;49.646;8.568;2023-06-14T11:41:41;4.32;;;3.05;;
11827;SDS011;5971;49.646;8.568;2023-06-14T11:44:45;5.30;;;2.90;;
11827;SDS011;5971;49.646;8.568;2023-06-14T11:47:46;3.70;;;3.00;;
11827;SDS011;5971;49.646;8.568;2023-06-14T11:50:49;4.60;;;3.08;;
11827;SDS011;5971;49.646;8.568;2023-06-14T11:53:51;4.53;;;2.95;;
11827;SDS011;5971;49.646;8.568;2023-06-14T11:56:52;3.65;;;3.03;;
11827;SDS011;5971;49.646;8.568;2023-06-14T11:59:54;3.70;;;2.90;;
11827;SDS011;5971;49.646;8.568;2023-06-14T12:02:56;5.00;;;3.15;;
11827;SDS011;5971;49.646;8.568;2023-06-14T12:06:04;3.70;;;2.75;;
11827;SDS011;5971;49.646;8.568;2023-06-14T12:09:06;4.55;;;2.95;;
11827;SDS011;5971;49.646;8.568;2023-06-14T12:12:12;3.90;;;3.00;;
11827;SDS011;5971;49.646;8.568;2023-06-14T12:15:13;3.90;;;2.85;;
11827;SDS011;5971;49.646;8.568;2023-06-14T12:18:15;3.50;;;2.83;;
11827;SDS011;5971;49.646;8.568;2023-06-14T12:21:17;4.20;;;2.90;;
11827;SDS011;5971;49.646;8.568;2023-06-14T12:24:20;4.40;;;3.00;;
11827;SDS011;5971;49.646;8.568;2023-06-14T12:27:21;4.53;;;2.75;;
11827;SDS011;5971;49.646;8.568;2023-06-14T12:30:25;4.80;;;2.97;;
11827;SDS011;5971;49.646;8.568;2023-06-14T12:33:26;4.35;;;2.80;;
11827;SDS011;5971;49.646;8.568;2023-06-14T12:36:27;3.00;;;2.42;;
11827;SDS011;5971;49.646;8.568;2023-06-14T12:39:30;3.80;;;2.90;;
11827;SDS011;5971;49.646;8.568;2023-06-14T12:42:32;3.67;;;2.63;;
11827;SDS011;5971;49.646;8.568;2023-06-14T12:45:34;4.00;;;2.75;;
11827;SDS011;5971;49.646;8.568;2023-06-14T12:48:36;3.28;;;2.58;;
11827;SDS011;5971;49.646;8.568;2023-06-14T12:51:38;4.10;;;3.00;;
11827;SDS011;5971;49.646;8.568;2023-06-14T12:54:39;3.65;;;3.10;;
11827;SDS011;5971;49.646;8.568;2023-06-14T12:57:42;3.70;;;2.67;;
11827;SDS011;5971;49.646;8.568;2023-06-14T13:00:43;3.90;;;2.92;;
11827;SDS011;5971;49.646;8.568;2023-06-14T13:03:46;4.07;;;2.95;;
11827;SDS011;5971;49.646;8.568;2023-06-14T13:06:47;4.15;;;3.00;;
11827;SDS011;5971;49.646;8.568;2023-06-14T13:09:49;3.75;;;2.72;;
11827;SDS011;5971;49.646;8.568;2023-06-14T13:12:51;3.65;;;2.75;;
11827;SDS011;5971;49.646;8.568;2023-06-14T13:15:52;3.70;;;2.95;;
11827;SDS011;5971;49.646;8.568;2023-06-14T13:18:53;4.15;;;3.38;;
11827;SDS011;5971;49.646;8.568;2023-06-14T13:21:55;3.80;;;2.65;;
11827;SDS011;5971;49.646;8.568;2023-06-14T13:24:56;4.65;;;2.63;;
11827;SDS011;5971;49.646;8.568;2023-06-14T13:27:57;4.28;;;2.80;;
11827;SDS011;5971;49.646;8.568;2023-06-14T13:30:59;3.55;;;2.60;;
11827;SDS011;5971;49.646;8.568;2023-06-14T13:34:00;4.10;;;2.70;;
11827;SDS011;5971;49.646;8.568;2023-06-14T13:37:01;4.35;;;2.75;;
11827;SDS011;5971;49.646;8.568;2023-06-14T13:40:03;3.92;;;2.65;;
11827;SDS011;5971;49.646;8.568;2023-06-14T13:43:04;5.82;;;2.90;;
11827;SDS011;5971;49.646;8.568;2023-06-14T13:46:09;3.75;;;2.67;;
11827;SDS011;5971;49.646;8.568;2023-06-14T13:49:52;3.22;;;2.45;;
11827;SDS011;5971;49.646;8.568;2023-06-14T13:52:53;4.30;;;3.00;;
11827;SDS011;5971;49.646;8.568;2023-06-14T13:55:54;4.65;;;2.63;;
11827;SDS011;5971;49.646;8.568;2023-06-14T13:58:56;3.53;;;2.88;;
11827;SDS011;5971;49.646;8.568;2023-06-14T14:01:57;4.53;;;2.92;;
11827;SDS011;5971;49.646;8.568;2023-06-14T14:04:59;3.70;;;2.72;;
11827;SDS011;5971;49.646;8.568;2023-06-14T14:08:00;3.85;;;2.72;;
11827;SDS011;5971;49.646;8.568;2023-06-14T14:11:03;7.03;;;3.03;;
11827;SDS011;5971;49.646;8.568;2023-06-14T14:14:04;3.72;;;2.85;;
11827;SDS011;5971;49.646;8.568;2023-06-14T14:17:06;4.07;;;2.58;;
11827;SDS011;5971;49.646;8.568;2023-06-14T14:20:08;4.07;;;3.05;;
11827;SDS011;5971;49.646;8.568;2023-06-14T14:23:10;4.05;;;2.83;;
11827;SDS011;5971;49.646;8.568;2023-06-14T14:26:11;4.57;;;2.72;;
11827;SDS011;5971;49.646;8.568;2023-06-14T14:29:12;5.32;;;3.33;;
11827;SDS011;5971;49.646;8.568;2023-06-14T14:32:14;3.97;;;2.83;;
11827;SDS011;5971;49.646;8.568;2023-06-14T14:35:16;3.85;;;2.80;;
11827;SDS011;5971;49.646;8.568;2023-06-14T14:38:17;4.15;;;3.00;;
11827;SDS011;5971;49.646;8.568;2023-06-14T14:41:19;3.80;;;2.83;;
11827;SDS011;5971;49.646;8.568;2023-06-14T14:44:20;3.95;;;3.05;;
11827;SDS011;5971;49.646;8.568;2023-06-14T14:47:22;3.67;;;2.85;;
11827;SDS011;5971;49.646;8.568;2023-06-14T14:50:25;4.47;;;2.80;;
11827;SDS011;5971;49.646;8.568;2023-06-14T14:53:26;4.38;;;2.90;;
11827;SDS011;5971;49.646;8.568;2023-06-14T14:56:27;3.33;;;2.53;;
11827;SDS011;5971;49.646;8.568;2023-06-14T14:59:29;4.10;;;3.10;;
11827;SDS011;5971;49.646;8.568;2023-06-14T15:02:30;3.25;;;2.72;;
11827;SDS011;5971;49.646;8.568;2023-06-14T15:05:32;3.70;;;2.92;;
11827;SDS011;5971;49.646;8.568;2023-06-14T15:08:33;4.28;;;2.40;;
11827;SDS011;5971;49.646;8.568;2023-06-14T15:11:35;3.60;;;2.88;;
11827;SDS011;5971;49.646;8.568;2023-06-14T15:14:36;4.28;;;2.95;;
11827;SDS011;5971;49.646;8.568;2023-06-14T15:17:37;5.50;;;2.60;;
11827;SDS011;5971;49.646;8.568;2023-06-14T15:20:39;3.92;;;2.72;;
11827;SDS011;5971;49.646;8.568;2023-06-14T15:23:42;4.57;;;3.13;;
11827;SDS011;5971;49.646;8.568;2023-06-14T15:26:43;6.75;;;3.30;;
11827;SDS011;5971;49.646;8.568;2023-06-14T15:29:44;4.25;;;2.97;;
11827;SDS011;5971;49.646;8.568;2023-06-14T15:32:50;5.78;;;2.97;;
11827;SDS011;5971;49.646;8.568;2023-06-14T15:35:51;3.83;;;2.92;;
11827;SDS011;5971;49.646;8.568;2023-06-14T15:38:53;3.90;;;2.83;;
11827;SDS011;5971;49.646;8.568;2023-06-14T15:41:54;3.60;;;2.88;;
11827;SDS011;5971;49.646;8.568;2023-06-14T15:44:56;3.85;;;2.80;;
11827;SDS011;5971;49.646;8.568;2023-06-14T15:47:57;3.30;;;2.53;;
11827;SDS011;5971;49.646;8.568;2023-06-14T15:50:59;4.22;;;2.58;;
11827;SDS011;5971;49.646;8.568;2023-06-14T15:54:00;3.72;;;2.95;;
11827;SDS011;5971;49.646;8.568;2023-06-14T15:57:02;4.53;;;3.25;;
11827;SDS011;5971;49.646;8.568;2023-06-14T16:00:04;4.30;;;3.03;;
11827;SDS011;5971;49.646;8.568;2023-06-14T16:03:07;3.50;;;2.58;;
11827;SDS011;5971;49.646;8.568;2023-06-14T16:06:09;3.83;;;3.00;;
11827;SDS011;5971;49.646;8.568;2023-06-14T16:09:10;3.55;;;2.75;;
11827;SDS011;5971;49.646;8.568;2023-06-14T16:12:11;4.40;;;2.70;;
11827;SDS011;5971;49.646;8.568;2023-06-14T16:15:14;4.25;;;2.85;;
11827;SDS011;5971;49.646;8.568;2023-06-14T16:18:16;4.03;;;2.65;;
11827;SDS011;5971;49.646;8.568;2023-06-14T16:21:17;5.15;;;3.03;;
11827;SDS011;5971;49.646;8.568;2023-06-14T16:24:18;5.15;;;2.55;;
11827;SDS011;5971;49.646;8.568;2023-06-14T16:27:20;4.75;;;2.80;;
11827;SDS011;5971;49.646;8.568;2023-06-14T16:30:21;4.95;;;2.50;;
11827;SDS011;5971;49.646;8.568;2023-06-14T16:33:23;5.28;;;2.65;;
11827;SDS011;5971;49.646;8.568;2023-06-14T16:36:24;4.50;;;2.85;;
11827;SDS011;5971;49.646;8.568;2023-06-14T16:39:26;5.40;;;3.05;;
11827;SDS011;5971;49.646;8.568;2023-06-14T16:42:27;4.47;;;2.47;;
11827;SDS011;5971;49.646;8.568;2023-06-14T16:45:28;3.63;;;2.75;;
11827;SDS011;5971;49.646;8.568;2023-06-14T16:48:30;9.77;;;2.58;;
11827;SDS011;5971;49.646;8.568;2023-06-14T16:51:31;3.35;;;2.60;;
11827;SDS011;5971;49.646;8.568;2023-06-14T16:54:33;3.30;;;2.47;;
11827;SDS011;5971;49.646;8.568;2023-06-14T16:57:34;3.47;;;2.78;;
11827;SDS011;5971;49.646;8.568;2023-06-14T17:00:36;3.30;;;2.60;;
11827;SDS011;5971;49.646;8.568;2023-06-14T17:03:37;3.38;;;2.53;;
11827;SDS011;5971;49.646;8.568;2023-06-14T17:06:39;4.10;;;2.63;;
11827;SDS011;5971;49.646;8.568;2023-06-14T17:09:40;3.47;;;2.28;;
11827;SDS011;5971;49.646;8.568;2023-06-14T17:12:43;4.18;;;2.63;;
11827;SDS011;5971;49.646;8.568;2023-06-14T17:15:45;4.32;;;2.35;;
11827;SDS011;5971;49.646;8.568;2023-06-14T17:18:47;7.55;;;2.42;;
11827;SDS011;5971;49.646;8.568;2023-06-14T17:21:48;3.70;;;2.53;;
11827;SDS011;5971;49.646;8.568;2023-06-14T17:24:52;3.58;;;2.10;;
11827;SDS011;5971;49.646;8.568;2023-06-14T17:27:57;4.40;;;2.55;;
11827;SDS011;5971;49.646;8.568;2023-06-14T17:30:59;3.25;;;2.28;;
11827;SDS011;5971;49.646;8.568;2023-06-14T17:34:00;3.20;;;2.22;;
11827;SDS011;5971;49.646;8.568;2023-06-14T17:37:02;3.90;;;2.50;;
11827;SDS011;5971;49.646;8.568;2023-06-14T17:40:03;3.60;;;2.22;;
11827;SDS011;5971;49.646;8.568;2023-06-14T17:43:05;3.65;;;2.63;;
11827;SDS011;5971;49.646;8.568;2023-06-14T17:46:06;4.72;;;2.40;;
11827;SDS011;5971;49.646;8.568;2023-06-14T17:49:08;5.18;;;2.78;;
11827;SDS011;5971;49.646;8.568;2023-06-14T17:52:09;3.58;;;2.50;;
11827;SDS011;5971;49.646;8.568;2023-06-14T17:55:11;4.57;;;2.53;;
11827;SDS011;5971;49.646;8.568;2023-06-14T17:58:12;4.07;;;2.70;;
11827;SDS011;5971;49.646;8.568;2023-06-14T18:01:13;7.22;;;2.72;;
11827;SDS011;5971;49.646;8.568;2023-06-14T18:04:18;4.45;;;2.55;;
11827;SDS011;5971;49.646;8.568;2023-06-14T18:07:19;3.40;;;2.45;;
11827;SDS011;5971;49.646;8.568;2023-06-14T18:10:21;3.63;;;2.40;;
11827;SDS011;5971;49.646;8.568;2023-06-14T18:13:22;3.60;;;2.33;;
11827;SDS011;5971;49.646;8.568;2023-06-14T18:16:23;3.65;;;2.50;;
11827;SDS011;5971;49.646;8.568;2023-06-14T18:19:25;4.72;;;3.15;;
11827;SDS011;5971;49.646;8.568;2023-06-14T18:22:29;3.92;;;2.63;;
11827;SDS011;5971;49.646;8.568;2023-06-14T18:25:31;3.70;;;2.15;;
11827;SDS011;5971;49.646;8.568;2023-06-14T18:28:32;3.85;;;2.45;;
11827;SDS011;5971;49.646;8.568;2023-06-14T18:31:34;4.38;;;2.60;;
11827;SDS011;5971;49.646;8.568;2023-06-14T18:34:35;3.80;;;2.42;;
11827;SDS011;5971;49.646;8.568;2023-06-14T18:37:37;4.28;;;2.45;;
11827;SDS011;5971;49.646;8.568;2023-06-14T18:40:38;3.90;;;2.42;;
11827;SDS011;5971;49.646;8.568;2023-06-14T18:43:40;3.50;;;2.40;;
11827;SDS011;5971;49.646;8.568;2023-06-14T18:46:41;3.72;;;2.63;;
11827;SDS011;5971;49.646;8.568;2023-06-14T18:49:44;3.58;;;2.58;;